Time;durP1;ratioP1;P1;durP2;ratioP2;P2;SDS_P1;SDS_P2;PMS_P1;PMS_P2;Temp;Humidity;BMP_temperature;BMP_pressure;BME280_temperature;BME280_humidity;BME280_pressure;Samples;Min_cycle;Max_cycle;Signal;HPM_P1;HPM_P2
2021/08/07 00:00:51;;;;;;;17.17;4.38;;;;;;;;;;5018503;28;20406;-64
2021/08/07 00:03:18;;;;;;;15.65;4.40;;;;;;;;;;5017479;28;20053;-64
2021/08/07 00:05:45;;;;;;;15.88;4.03;;;;;;;;;;5021203;28;20136;-64
2021/08/07 00:08:11;;;;;;;13.48;4.22;;;;;;;;;;5025708;28;20121;-64
2021/08/07 00:10:38;;;;;;;14.82;4.07;;;;;;;;;;5018847;28;20053;-64
2021/08/07 00:13:04;;;;;;;14.77;4.38;;;;;;;;;;5017762;28;20046;-64
2021/08/07 00:15:30;;;;;;;18.67;4.63;;;;;;;;;;5023196;28;20064;-64
2021/08/07 00:17:56;;;;;;;14.55;4.57;;;;;;;;;;5021090;28;20046;-64
2021/08/07 00:20:23;;;;;;;22.08;5.35;;;;;;;;;;5020367;28;20073;-64
2021/08/07 00:22:49;;;;;;;19.00;4.63;;;;;;;;;;5025315;28;20046;-64
2021/08/07 00:25:16;;;;;;;21.95;5.53;;;;;;;;;;5022023;28;20489;-64
2021/08/07 00:27:42;;;;;;;16.20;4.70;;;;;;;;;;5017805;28;20037;-64
2021/08/07 00:30:09;;;;;;;17.45;4.75;;;;;;;;;;5020684;28;20053;-64
2021/08/07 00:32:35;;;;;;;18.13;4.78;;;;;;;;;;5023245;28;20049;-64
2021/08/07 00:35:01;;;;;;;24.20;5.45;;;;;;;;;;5018059;28;20094;-64
2021/08/07 00:37:28;;;;;;;16.50;4.28;;;;;;;;;;5019467;28;20478;-64
2021/08/07 00:39:54;;;;;;;21.45;5.05;;;;;;;;;;5024724;28;20053;-64
2021/08/07 00:42:20;;;;;;;18.80;4.65;;;;;;;;;;5020425;28;20053;-64
2021/08/07 00:44:46;;;;;;;14.95;5.07;;;;;;;;;;5019967;28;20080;-65
2021/08/07 00:47:13;;;;;;;17.02;5.07;;;;;;;;;;5022738;28;20053;-64
2021/08/07 00:49:39;;;;;;;21.25;5.40;;;;;;;;;;5020879;28;20717;-64
2021/08/07 00:52:07;;;;;;;16.58;4.80;;;;;;;;;;5018046;28;20053;-64
2021/08/07 00:54:34;;;;;;;17.13;4.80;;;;;;;;;;5021374;28;20607;-64
2021/08/07 00:57:00;;;;;;;13.77;4.80;;;;;;;;;;5023319;28;20037;-64
2021/08/07 00:59:26;;;;;;;22.85;5.82;;;;;;;;;;5020137;28;20046;-64
2021/08/07 01:01:55;;;;;;;12.00;4.65;;;;;;;;;;5021319;28;20152;-64
2021/08/07 01:04:23;;;;;;;16.50;5.10;;;;;;;;;;5020095;28;20046;-64
2021/08/07 01:06:54;;;;;;;18.92;5.18;;;;;;;;;;5028793;28;20049;-64
2021/08/07 01:09:34;;;;;;;14.80;4.93;;;;;;;;;;5027201;28;20124;-65
2021/08/07 01:12:05;;;;;;;19.63;5.55;;;;;;;;;;5026328;28;20048;-64
2021/08/07 01:14:35;;;;;;;21.42;5.82;;;;;;;;;;5023188;28;20112;-64
2021/08/07 01:17:02;;;;;;;17.90;5.13;;;;;;;;;;5019106;28;20041;-64
2021/08/07 01:19:31;;;;;;;18.88;5.53;;;;;;;;;;5021392;28;20049;-64
2021/08/07 01:21:59;;;;;;;17.83;5.50;;;;;;;;;;5023549;28;20056;-64
2021/08/07 01:24:29;;;;;;;16.95;5.47;;;;;;;;;;5020125;28;20096;-64
2021/08/07 01:26:56;;;;;;;17.10;5.25;;;;;;;;;;5017665;28;20139;-64
2021/08/07 01:29:24;;;;;;;13.52;4.75;;;;;;;;;;5022150;28;20041;-64
2021/08/07 01:31:51;;;;;;;14.30;4.43;;;;;;;;;;5019705;28;20041;-64
2021/08/07 01:34:18;;;;;;;15.60;5.13;;;;;;;;;;5018904;28;20042;-64
2021/08/07 01:36:45;;;;;;;14.52;5.57;;;;;;;;;;5018715;28;20733;-65
2021/08/07 01:39:11;;;;;;;20.13;5.50;;;;;;;;;;5017732;28;20046;-64
2021/08/07 01:41:38;;;;;;;17.05;4.88;;;;;;;;;;5023253;28;20046;-64
2021/08/07 01:44:04;;;;;;;14.43;5.07;;;;;;;;;;5024093;28;20061;-64
2021/08/07 01:46:33;;;;;;;17.35;5.45;;;;;;;;;;5021689;28;20486;-64
2021/08/07 01:49:11;;;;;;;15.98;5.28;;;;;;;;;;5018162;28;20111;-64
2021/08/07 01:51:41;;;;;;;16.42;5.28;;;;;;;;;;5024459;28;20048;-64
2021/08/07 01:54:09;;;;;;;16.42;4.95;;;;;;;;;;5021666;28;20055;-64
2021/08/07 01:56:37;;;;;;;12.48;4.78;;;;;;;;;;5020091;28;20117;-64
2021/08/07 01:59:05;;;;;;;16.92;5.50;;;;;;;;;;5026020;28;20429;-64
2021/08/07 02:01:32;;;;;;;20.58;6.53;;;;;;;;;;5023752;28;21775;-64
2021/08/07 02:04:00;;;;;;;15.80;5.70;;;;;;;;;;5026432;28;20125;-65
2021/08/07 02:06:27;;;;;;;16.70;5.57;;;;;;;;;;5019495;28;20590;-64
2021/08/07 02:08:54;;;;;;;20.75;6.03;;;;;;;;;;5036163;28;20553;-64
2021/08/07 02:11:21;;;;;;;16.75;5.55;;;;;;;;;;5021015;28;20519;-64
2021/08/07 02:13:47;;;;;;;21.63;6.13;;;;;;;;;;5020073;28;20045;-64
2021/08/07 02:16:15;;;;;;;20.85;5.65;;;;;;;;;;5018525;28;20800;-64
2021/08/07 02:18:41;;;;;;;13.18;4.82;;;;;;;;;;5017383;28;20080;-64
2021/08/07 02:21:08;;;;;;;15.63;6.22;;;;;;;;;;5017188;28;20164;-64
2021/08/07 02:23:34;;;;;;;18.38;6.13;;;;;;;;;;5016073;28;20405;-64
2021/08/07 02:26:02;;;;;;;20.88;6.22;;;;;;;;;;5021690;28;20148;-64
2021/08/07 02:28:29;;;;;;;13.88;5.03;;;;;;;;;;5016344;28;20069;-64
2021/08/07 02:30:56;;;;;;;17.35;5.30;;;;;;;;;;5019854;28;20046;-64
2021/08/07 02:33:23;;;;;;;20.50;5.38;;;;;;;;;;5017081;28;20127;-64
2021/08/07 02:35:52;;;;;;;17.40;5.88;;;;;;;;;;5021398;28;20489;-64
2021/08/07 02:38:19;;;;;;;17.85;6.07;;;;;;;;;;5021689;28;20060;-64
2021/08/07 02:40:45;;;;;;;21.92;6.05;;;;;;;;;;5020652;28;20049;-64
2021/08/07 02:43:12;;;;;;;16.38;5.15;;;;;;;;;;5016552;28;20046;-64
2021/08/07 02:45:38;;;;;;;15.65;5.30;;;;;;;;;;5023307;28;20042;-64
2021/08/07 02:48:05;;;;;;;14.02;5.18;;;;;;;;;;5019932;28;20045;-64
2021/08/07 02:50:31;;;;;;;14.60;6.25;;;;;;;;;;5017530;28;20397;-64
2021/08/07 02:52:57;;;;;;;15.43;6.22;;;;;;;;;;5021931;28;20511;-64
2021/08/07 02:55:23;;;;;;;15.30;5.45;;;;;;;;;;5016600;28;20073;-64
2021/08/07 02:57:52;;;;;;;14.98;5.63;;;;;;;;;;5018391;28;20034;-65
2021/08/07 03:00:19;;;;;;;17.20;5.40;;;;;;;;;;5016832;28;20049;-64
2021/08/07 03:02:45;;;;;;;17.08;5.32;;;;;;;;;;5016576;28;20081;-64
2021/08/07 03:05:12;;;;;;;12.18;5.68;;;;;;;;;;5019790;28;20041;-64
2021/08/07 03:07:39;;;;;;;13.80;5.15;;;;;;;;;;5018865;28;20065;-64
2021/08/07 03:10:07;;;;;;;10.48;4.93;;;;;;;;;;5018599;28;20034;-64
2021/08/07 03:12:33;;;;;;;13.63;6.13;;;;;;;;;;5018458;28;20049;-64
2021/08/07 03:15:00;;;;;;;14.13;5.20;;;;;;;;;;5014407;28;20065;-64
2021/08/07 03:17:26;;;;;;;19.50;5.85;;;;;;;;;;5016184;28;20295;-64
2021/08/07 03:19:53;;;;;;;12.63;4.82;;;;;;;;;;5022537;28;20158;-64
2021/08/07 03:22:19;;;;;;;13.80;5.60;;;;;;;;;;5019003;28;20489;-64
2021/08/07 03:24:45;;;;;;;13.30;5.18;;;;;;;;;;5015505;28;20121;-64
2021/08/07 03:27:12;;;;;;;15.48;5.25;;;;;;;;;;5016315;28;20080;-64
2021/08/07 03:29:38;;;;;;;14.63;5.28;;;;;;;;;;5018493;28;20092;-64
2021/08/07 03:32:17;;;;;;;13.02;5.38;;;;;;;;;;5019613;28;20103;-64
2021/08/07 03:34:43;;;;;;;11.82;5.03;;;;;;;;;;5016661;28;20105;-64
2021/08/07 03:37:09;;;;;;;15.65;5.18;;;;;;;;;;5019251;28;20053;-64
2021/08/07 03:39:36;;;;;;;13.05;5.07;;;;;;;;;;5021708;28;20037;-64
2021/08/07 03:42:02;;;;;;;14.50;5.47;;;;;;;;;;5020756;28;20049;-64
2021/08/07 03:44:28;;;;;;;11.70;5.43;;;;;;;;;;5021387;28;20042;-64
2021/08/07 03:46:54;;;;;;;15.82;5.28;;;;;;;;;;5023792;28;20046;-64
2021/08/07 03:49:24;;;;;;;10.25;4.68;;;;;;;;;;5020641;28;20462;-64
2021/08/07 03:51:50;;;;;;;13.50;5.45;;;;;;;;;;5019579;28;20126;-64
2021/08/07 03:54:16;;;;;;;12.05;4.68;;;;;;;;;;5020450;28;20125;-64
2021/08/07 03:56:42;;;;;;;17.25;5.28;;;;;;;;;;5017949;28;20064;-64
2021/08/07 03:59:09;;;;;;;14.90;4.93;;;;;;;;;;5025893;28;20042;-64
2021/08/07 04:01:35;;;;;;;16.27;5.43;;;;;;;;;;5022775;28;20041;-64
2021/08/07 04:04:01;;;;;;;13.60;5.32;;;;;;;;;;5024023;28;20358;-64
2021/08/07 04:06:28;;;;;;;14.50;5.03;;;;;;;;;;5024109;28;20135;-64
2021/08/07 04:08:54;;;;;;;11.18;5.05;;;;;;;;;;5020153;28;20065;-64
2021/08/07 04:11:20;;;;;;;13.82;5.95;;;;;;;;;;5019284;28;20068;-64
2021/08/07 04:13:47;;;;;;;14.88;5.88;;;;;;;;;;5024177;28;20481;-64
2021/08/07 04:16:13;;;;;;;11.50;5.53;;;;;;;;;;5017463;28;20418;-65
2021/08/07 04:18:39;;;;;;;15.15;6.10;;;;;;;;;;5022137;28;20067;-64
2021/08/07 04:21:05;;;;;;;14.73;6.05;;;;;;;;;;5019048;28;20052;-64
2021/08/07 04:23:31;;;;;;;13.45;5.50;;;;;;;;;;5019423;28;20095;-64
2021/08/07 04:25:58;;;;;;;18.60;6.10;;;;;;;;;;5019783;28;20067;-64
2021/08/07 04:28:24;;;;;;;10.85;5.53;;;;;;;;;;5023995;28;20358;-64
2021/08/07 04:30:50;;;;;;;13.38;6.10;;;;;;;;;;5028153;28;20517;-64
2021/08/07 04:33:16;;;;;;;15.07;5.70;;;;;;;;;;5022744;28;20472;-65
2021/08/07 04:35:43;;;;;;;17.75;6.40;;;;;;;;;;5018306;28;20465;-64
2021/08/07 04:38:10;;;;;;;13.68;5.85;;;;;;;;;;5021541;28;20067;-64
2021/08/07 04:40:36;;;;;;;14.00;5.70;;;;;;;;;;5018616;28;20069;-64
2021/08/07 04:43:03;;;;;;;17.52;6.38;;;;;;;;;;5020672;28;20069;-64
2021/08/07 04:45:29;;;;;;;18.30;6.57;;;;;;;;;;5024151;28;20041;-64
2021/08/07 04:47:57;;;;;;;16.33;6.55;;;;;;;;;;5019164;28;20045;-64
2021/08/07 04:50:24;;;;;;;19.35;6.60;;;;;;;;;;5020319;28;20049;-64
2021/08/07 04:52:51;;;;;;;23.13;6.65;;;;;;;;;;5017179;28;20048;-64
2021/08/07 04:55:17;;;;;;;14.00;5.80;;;;;;;;;;5020218;28;20049;-64
2021/08/07 04:57:43;;;;;;;21.85;6.57;;;;;;;;;;5018804;28;20050;-64
2021/08/07 05:00:10;;;;;;;21.50;7.07;;;;;;;;;;5037918;28;20077;-64
2021/08/07 05:02:36;;;;;;;19.52;7.35;;;;;;;;;;5023514;28;20124;-64
2021/08/07 05:05:03;;;;;;;19.30;6.30;;;;;;;;;;5019371;28;20053;-64
2021/08/07 05:07:31;;;;;;;20.60;7.05;;;;;;;;;;5017085;28;20430;-64
2021/08/07 05:09:58;;;;;;;14.18;5.70;;;;;;;;;;5019449;28;20057;-64
2021/08/07 05:12:27;;;;;;;19.08;5.90;;;;;;;;;;5019463;28;20057;-64
2021/08/07 05:14:54;;;;;;;22.20;6.18;;;;;;;;;;5018419;28;20358;-64
2021/08/07 05:17:20;;;;;;;19.40;5.75;;;;;;;;;;5021137;28;20046;-65
2021/08/07 05:19:46;;;;;;;17.02;6.20;;;;;;;;;;5019984;28;20128;-64
2021/08/07 05:22:12;;;;;;;17.58;5.60;;;;;;;;;;5015685;28;20054;-64
2021/08/07 05:24:39;;;;;;;18.13;5.47;;;;;;;;;;5019700;28;20117;-64
2021/08/07 05:27:05;;;;;;;17.65;5.50;;;;;;;;;;5038370;28;20114;-64
2021/08/07 05:29:31;;;;;;;16.63;5.68;;;;;;;;;;5020042;28;20034;-64
2021/08/07 05:31:57;;;;;;;18.67;5.03;;;;;;;;;;5017739;28;20054;-65
2021/08/07 05:34:24;;;;;;;16.85;4.93;;;;;;;;;;5024316;28;20053;-65
2021/08/07 05:36:50;;;;;;;20.52;5.78;;;;;;;;;;5019652;28;20042;-64
2021/08/07 05:39:16;;;;;;;16.63;5.55;;;;;;;;;;5019267;28;20129;-65
2021/08/07 05:41:42;;;;;;;17.60;4.90;;;;;;;;;;5017452;28;20050;-65
2021/08/07 05:44:08;;;;;;;13.82;4.70;;;;;;;;;;5017717;28;20108;-66
2021/08/07 05:46:35;;;;;;;20.42;6.00;;;;;;;;;;5022427;28;20072;-66
2021/08/07 05:49:01;;;;;;;17.42;5.30;;;;;;;;;;5020921;28;20046;-65
2021/08/07 05:51:27;;;;;;;18.77;5.57;;;;;;;;;;5018676;28;20401;-66
2021/08/07 05:53:54;;;;;;;12.20;4.43;;;;;;;;;;5021049;28;20090;-66
2021/08/07 05:56:21;;;;;;;15.93;4.97;;;;;;;;;;5021106;28;20054;-66
2021/08/07 05:58:47;;;;;;;14.70;4.38;;;;;;;;;;5019100;28;20046;-66
2021/08/07 06:01:13;;;;;;;21.40;4.80;;;;;;;;;;5024892;28;20382;-66
2021/08/07 06:03:40;;;;;;;18.40;4.75;;;;;;;;;;5023993;28;20041;-66
2021/08/07 06:06:06;;;;;;;13.30;3.95;;;;;;;;;;5020451;28;20049;-66
2021/08/07 06:08:33;;;;;;;13.77;4.63;;;;;;;;;;5021976;28;20604;-67
2021/08/07 06:10:59;;;;;;;17.35;5.32;;;;;;;;;;5021066;28;20163;-66
2021/08/07 06:13:26;;;;;;;17.27;4.88;;;;;;;;;;5023832;28;20037;-66
2021/08/07 06:15:52;;;;;;;15.60;5.57;;;;;;;;;;5019325;28;20096;-67
2021/08/07 06:18:18;;;;;;;14.98;5.47;;;;;;;;;;5017397;28;20064;-66
2021/08/07 06:20:45;;;;;;;16.23;4.53;;;;;;;;;;5022374;28;20432;-66
2021/08/07 06:23:11;;;;;;;15.27;5.82;;;;;;;;;;5019644;28;20049;-66
2021/08/07 06:25:38;;;;;;;15.65;4.63;;;;;;;;;;5026123;28;20088;-66
2021/08/07 06:28:05;;;;;;;15.65;5.60;;;;;;;;;;5020283;28;20033;-66
2021/08/07 06:30:31;;;;;;;14.32;4.60;;;;;;;;;;5031584;28;20045;-66
2021/08/07 06:32:57;;;;;;;17.08;4.97;;;;;;;;;;5029835;28;20131;-67
2021/08/07 06:35:24;;;;;;;17.98;4.70;;;;;;;;;;5022998;28;20046;-67
2021/08/07 06:37:52;;;;;;;12.95;5.18;;;;;;;;;;5023668;28;20076;-67
2021/08/07 06:40:18;;;;;;;12.27;4.03;;;;;;;;;;5021063;28;20049;-67
2021/08/07 06:42:45;;;;;;;13.90;4.60;;;;;;;;;;5021477;28;20128;-67
2021/08/07 06:45:11;;;;;;;19.50;5.22;;;;;;;;;;5021255;28;20068;-67
2021/08/07 06:47:38;;;;;;;20.80;5.97;;;;;;;;;;5020551;28;20075;-67
2021/08/07 06:50:05;;;;;;;20.05;5.47;;;;;;;;;;5021764;28;20037;-67
2021/08/07 06:52:32;;;;;;;13.70;4.82;;;;;;;;;;5017849;28;20041;-67
2021/08/07 06:54:59;;;;;;;10.98;4.40;;;;;;;;;;5016484;28;20152;-67
2021/08/07 06:57:25;;;;;;;16.08;5.50;;;;;;;;;;5020060;28;20077;-67
2021/08/07 06:59:52;;;;;;;16.70;5.30;;;;;;;;;;5020784;28;20485;-67
2021/08/07 07:02:18;;;;;;;12.30;5.38;;;;;;;;;;5021534;28;20045;-67
2021/08/07 07:04:44;;;;;;;15.25;4.85;;;;;;;;;;5017524;28;20133;-67
2021/08/07 07:07:10;;;;;;;18.55;4.82;;;;;;;;;;5019698;28;20502;-67
2021/08/07 07:09:37;;;;;;;19.08;5.28;;;;;;;;;;5020035;28;20113;-67
2021/08/07 07:12:04;;;;;;;15.82;4.88;;;;;;;;;;5016476;28;20056;-67
2021/08/07 07:14:30;;;;;;;12.70;5.25;;;;;;;;;;5018608;28;20045;-67
2021/08/07 07:16:57;;;;;;;12.60;5.13;;;;;;;;;;5019485;28;20049;-66
2021/08/07 07:19:25;;;;;;;12.73;5.00;;;;;;;;;;5016010;28;20104;-67
2021/08/07 07:21:52;;;;;;;12.80;5.22;;;;;;;;;;5027333;28;20041;-67
2021/08/07 07:24:18;;;;;;;15.02;5.50;;;;;;;;;;5020493;28;20052;-67
2021/08/07 07:26:44;;;;;;;19.15;5.72;;;;;;;;;;5018269;28;20402;-67
2021/08/07 07:29:10;;;;;;;15.38;4.90;;;;;;;;;;5015177;28;22134;-67
2021/08/07 07:31:36;;;;;;;13.35;4.65;;;;;;;;;;5020187;28;20374;-67
2021/08/07 07:34:03;;;;;;;14.02;4.53;;;;;;;;;;5019698;28;20146;-67
2021/08/07 07:36:29;;;;;;;10.00;3.67;;;;;;;;;;5015464;28;20494;-67
2021/08/07 07:38:55;;;;;;;14.10;4.50;;;;;;;;;;5017426;28;21643;-67
2021/08/07 07:41:21;;;;;;;15.35;4.93;;;;;;;;;;5024860;28;20120;-67
2021/08/07 07:43:47;;;;;;;9.95;3.78;;;;;;;;;;5018374;28;20059;-67
2021/08/07 07:46:14;;;;;;;18.20;4.45;;;;;;;;;;5019324;28;20049;-67
2021/08/07 07:48:41;;;;;;;20.08;5.68;;;;;;;;;;5020968;28;20477;-67
2021/08/07 07:51:07;;;;;;;21.63;4.68;;;;;;;;;;5018062;28;20053;-67
2021/08/07 07:53:33;;;;;;;18.63;5.47;;;;;;;;;;5020018;28;20124;-67
2021/08/07 07:55:59;;;;;;;16.35;4.30;;;;;;;;;;5020682;28;20145;-67
2021/08/07 07:58:26;;;;;;;13.68;4.55;;;;;;;;;;5018321;28;20041;-67
2021/08/07 08:00:52;;;;;;;13.60;3.95;;;;;;;;;;5022663;28;20119;-67
2021/08/07 08:03:19;;;;;;;15.88;5.10;;;;;;;;;;5024811;28;20476;-67
2021/08/07 08:05:45;;;;;;;14.65;4.45;;;;;;;;;;5018797;28;20042;-67
2021/08/07 08:08:11;;;;;;;13.20;4.20;;;;;;;;;;5022239;28;20046;-67
2021/08/07 08:10:40;;;;;;;18.95;4.32;;;;;;;;;;5022627;28;20050;-67
2021/08/07 08:13:06;;;;;;;15.20;4.43;;;;;;;;;;5020574;28;20416;-67
2021/08/07 08:15:37;;;;;;;14.20;3.40;;;;;;;;;;5019359;28;20188;-67
2021/08/07 08:18:03;;;;;;;16.05;3.67;;;;;;;;;;5022557;28;20088;-66
2021/08/07 08:20:29;;;;;;;9.63;3.40;;;;;;;;;;5023062;28;20037;-67
2021/08/07 08:22:55;;;;;;;11.23;3.30;;;;;;;;;;5021034;28;20063;-67
2021/08/07 08:25:24;;;;;;;15.63;3.47;;;;;;;;;;5021341;28;20570;-67
2021/08/07 08:27:51;;;;;;;10.30;2.92;;;;;;;;;;5024705;28;20060;-66
2021/08/07 08:30:17;;;;;;;14.18;3.53;;;;;;;;;;5023997;28;20048;-67
2021/08/07 08:32:44;;;;;;;13.48;2.95;;;;;;;;;;5020620;28;20057;-67
2021/08/07 08:35:10;;;;;;;12.80;3.03;;;;;;;;;;5022258;28;20037;-67
2021/08/07 08:37:37;;;;;;;10.77;2.92;;;;;;;;;;5024816;28;20127;-66
2021/08/07 08:40:04;;;;;;;13.35;3.53;;;;;;;;;;5021518;28;20413;-67
2021/08/07 08:42:31;;;;;;;12.85;2.60;;;;;;;;;;5023450;28;20564;-67
2021/08/07 08:44:57;;;;;;;11.93;3.20;;;;;;;;;;5023588;28;20454;-67
2021/08/07 08:47:23;;;;;;;8.95;2.72;;;;;;;;;;5017171;28;20142;-67
2021/08/07 08:49:51;;;;;;;10.70;2.50;;;;;;;;;;5024903;28;20034;-67
2021/08/07 08:52:18;;;;;;;8.88;2.60;;;;;;;;;;5024289;28;20049;-67
2021/08/07 08:54:44;;;;;;;11.32;3.08;;;;;;;;;;5025187;28;20497;-67
2021/08/07 08:57:10;;;;;;;9.93;2.55;;;;;;;;;;5024815;28;20056;-67
2021/08/07 08:59:37;;;;;;;6.90;2.03;;;;;;;;;;5022513;28;20089;-66
2021/08/07 09:02:03;;;;;;;10.25;2.60;;;;;;;;;;5025284;28;20041;-67
2021/08/07 09:04:29;;;;;;;8.88;2.63;;;;;;;;;;5022346;28;20052;-67
2021/08/07 09:06:55;;;;;;;10.60;3.40;;;;;;;;;;5022071;28;20140;-67
2021/08/07 09:09:35;;;;;;;15.18;4.55;;;;;;;;;;5021512;28;20390;-67
2021/08/07 09:12:02;;;;;;;13.93;2.95;;;;;;;;;;5022136;28;20180;-67
2021/08/07 09:14:29;;;;;;;12.93;2.45;;;;;;;;;;5023500;28;20045;-67
2021/08/07 09:17:02;;;;;;;13.38;2.80;;;;;;;;;;5024493;28;20064;-67
2021/08/07 09:19:29;;;;;;;8.57;2.85;;;;;;;;;;5021654;28;20041;-67
2021/08/07 09:22:05;;;;;;;12.45;2.88;;;;;;;;;;5022065;28;20112;-67
2021/08/07 09:24:31;;;;;;;15.63;4.95;;;;;;;;;;5025360;28;20049;-67
2021/08/07 09:27:01;;;;;;;8.90;3.05;;;;;;;;;;5019564;28;20073;-67
2021/08/07 09:29:39;;;;;;;11.82;3.25;;;;;;;;;;5018773;28;20095;-67
2021/08/07 09:32:05;;;;;;;10.40;2.72;;;;;;;;;;5024642;28;20045;-67
2021/08/07 09:34:32;;;;;;;9.13;1.90;;;;;;;;;;5021488;28;20041;-67
2021/08/07 09:36:58;;;;;;;8.85;2.10;;;;;;;;;;5024685;28;20398;-67
2021/08/07 09:39:37;;;;;;;7.63;2.25;;;;;;;;;;5023533;28;20037;-67
2021/08/07 09:42:04;;;;;;;11.80;2.55;;;;;;;;;;5019463;28;20171;-67
2021/08/07 09:44:30;;;;;;;6.57;1.65;;;;;;;;;;5024212;28;20121;-67
2021/08/07 09:47:08;;;;;;;6.53;1.85;;;;;;;;;;5023077;28;20049;-67
2021/08/07 09:49:37;;;;;;;8.82;1.73;;;;;;;;;;5023253;28;20101;-68
2021/08/07 09:52:04;;;;;;;7.32;1.50;;;;;;;;;;5021422;28;20056;-67
2021/08/07 09:54:41;;;;;;;7.90;1.50;;;;;;;;;;5022852;28;20117;-67
2021/08/07 09:57:10;;;;;;;7.78;1.80;;;;;;;;;;5020976;28;20049;-67
2021/08/07 09:59:47;;;;;;;10.68;2.45;;;;;;;;;;5018439;28;20037;-67
2021/08/07 10:02:21;;;;;;;8.13;1.92;;;;;;;;;;5021933;28;20503;-67
2021/08/07 10:04:48;;;;;;;6.55;1.55;;;;;;;;;;5022506;28;20041;-67
2021/08/07 10:07:14;;;;;;;7.43;1.85;;;;;;;;;;5021214;28;20053;-67
2021/08/07 10:09:40;;;;;;;6.18;1.95;;;;;;;;;;5023359;28;20551;-67
2021/08/07 10:12:08;;;;;;;10.35;2.00;;;;;;;;;;5021054;28;20041;-68
2021/08/07 10:14:36;;;;;;;6.72;2.20;;;;;;;;;;5016242;28;20474;-67
2021/08/07 10:17:03;;;;;;;6.68;1.63;;;;;;;;;;5024915;28;20041;-67
2021/08/07 10:19:31;;;;;;;5.80;1.38;;;;;;;;;;5017744;28;20405;-67
2021/08/07 10:21:58;;;;;;;6.10;1.80;;;;;;;;;;5021470;28;20045;-67
2021/08/07 10:24:24;;;;;;;7.88;1.83;;;;;;;;;;5023940;28;20059;-67
2021/08/07 10:26:51;;;;;;;5.45;1.52;;;;;;;;;;5016727;28;20061;-68
2021/08/07 10:29:18;;;;;;;8.25;2.35;;;;;;;;;;5019203;28;20050;-67
2021/08/07 10:31:45;;;;;;;7.47;1.65;;;;;;;;;;5020119;28;20359;-67
2021/08/07 10:34:11;;;;;;;6.70;1.80;;;;;;;;;;5020408;28;21472;-67
2021/08/07 10:36:38;;;;;;;7.07;1.88;;;;;;;;;;5019218;28;20038;-67
2021/08/07 10:39:06;;;;;;;5.30;1.42;;;;;;;;;;5021140;28;20434;-67
2021/08/07 10:41:33;;;;;;;7.00;1.73;;;;;;;;;;5019975;28;20045;-67
2021/08/07 10:44:00;;;;;;;6.63;1.70;;;;;;;;;;5018423;28;20048;-67
2021/08/07 10:46:27;;;;;;;5.60;1.45;;;;;;;;;;5020695;28;20090;-67
2021/08/07 10:48:54;;;;;;;9.50;1.70;;;;;;;;;;5022810;28;20045;-68
2021/08/07 10:51:20;;;;;;;6.97;1.40;;;;;;;;;;5018793;28;20060;-67
2021/08/07 10:53:47;;;;;;;6.40;1.50;;;;;;;;;;5024202;28;20389;-67
2021/08/07 10:56:26;;;;;;;7.10;1.55;;;;;;;;;;5023497;28;20728;-67
2021/08/07 10:58:53;;;;;;;6.05;1.27;;;;;;;;;;5020031;28;20092;-67
2021/08/07 11:01:20;;;;;;;4.45;1.50;;;;;;;;;;5019686;28;20406;-67
2021/08/07 11:03:46;;;;;;;5.25;1.20;;;;;;;;;;5023301;28;20053;-67
2021/08/07 11:06:13;;;;;;;7.07;2.03;;;;;;;;;;5019114;28;20041;-67
2021/08/07 11:08:39;;;;;;;5.65;1.50;;;;;;;;;;5018625;28;20115;-67
2021/08/07 11:11:24;;;;;;;8.52;1.80;;;;;;;;;;5018340;28;20046;-67
2021/08/07 11:13:50;;;;;;;7.25;1.50;;;;;;;;;;5023303;28;20072;-67
2021/08/07 11:16:18;;;;;;;8.13;1.77;;;;;;;;;;5015153;28;20054;-67
2021/08/07 11:18:44;;;;;;;7.15;1.08;;;;;;;;;;5023399;28;20046;-67
2021/08/07 11:21:30;;;;;;;5.57;1.20;;;;;;;;;;5020305;28;20417;-67
2021/08/07 11:23:56;;;;;;;6.22;1.50;;;;;;;;;;5018531;28;20046;-67
2021/08/07 11:26:42;;;;;;;7.30;1.20;;;;;;;;;;5023507;28;20046;-67
2021/08/07 11:29:09;;;;;;;6.53;1.45;;;;;;;;;;5017596;28;20041;-67
2021/08/07 11:31:36;;;;;;;5.85;1.40;;;;;;;;;;5022026;28;20049;-67
2021/08/07 11:34:21;;;;;;;6.55;1.80;;;;;;;;;;5019818;28;20587;-67
2021/08/07 11:37:12;;;;;;;5.40;1.08;;;;;;;;;;5017850;28;20456;-67
2021/08/07 11:40:01;;;;;;;7.13;1.40;;;;;;;;;;5023254;28;20426;-67
2021/08/07 11:42:35;;;;;;;8.60;1.60;;;;;;;;;;5021051;28;20045;-67
2021/08/07 11:45:01;;;;;;;8.13;1.52;;;;;;;;;;5021980;28;20103;-67
2021/08/07 11:47:28;;;;;;;5.65;1.25;;;;;;;;;;5020920;28;20509;-67
2021/08/07 11:49:54;;;;;;;4.90;1.02;;;;;;;;;;5023465;28;20402;-67
2021/08/07 11:52:21;;;;;;;8.93;1.30;;;;;;;;;;5020371;28;20046;-67
2021/08/07 11:54:53;;;;;;;5.35;1.40;;;;;;;;;;5022192;28;20053;-67
2021/08/07 11:57:23;;;;;;;6.53;1.48;;;;;;;;;;5016197;28;20044;-67
2021/08/07 11:59:50;;;;;;;4.75;1.05;;;;;;;;;;5020299;28;20069;-67
2021/08/07 12:02:16;;;;;;;5.38;1.30;;;;;;;;;;5022504;28;20136;-67
2021/08/07 12:04:43;;;;;;;3.22;1.00;;;;;;;;;;5021257;28;20148;-67
2021/08/07 12:07:10;;;;;;;5.85;1.30;;;;;;;;;;5024382;28;20141;-67
2021/08/07 12:09:37;;;;;;;4.45;1.63;;;;;;;;;;5024456;28;20060;-67
2021/08/07 12:12:03;;;;;;;4.90;1.23;;;;;;;;;;5018593;28;20045;-67
2021/08/07 12:14:30;;;;;;;4.93;1.88;;;;;;;;;;5023884;28;20052;-67
2021/08/07 12:17:05;;;;;;;5.57;1.20;;;;;;;;;;5018929;28;20089;-67
2021/08/07 12:19:31;;;;;;;5.00;1.42;;;;;;;;;;5023001;28;20061;-68
2021/08/07 12:22:04;;;;;;;4.70;1.13;;;;;;;;;;5025856;28;20115;-67
2021/08/07 12:24:30;;;;;;;3.95;1.33;;;;;;;;;;5022096;28;20140;-67
2021/08/07 12:26:58;;;;;;;5.50;1.23;;;;;;;;;;5021315;28;20061;-67
2021/08/07 12:29:24;;;;;;;6.43;1.00;;;;;;;;;;5020380;28;20120;-67
2021/08/07 12:31:53;;;;;;;5.47;1.15;;;;;;;;;;5022588;28;20045;-67
2021/08/07 12:34:21;;;;;;;7.05;1.40;;;;;;;;;;5023357;28;20045;-67
2021/08/07 12:36:56;;;;;;;6.60;1.10;;;;;;;;;;5022412;28;20496;-67
2021/08/07 12:39:23;;;;;;;5.13;1.05;;;;;;;;;;5014126;28;20129;-67
2021/08/07 12:41:49;;;;;;;5.78;1.13;;;;;;;;;;5023004;28;20050;-67
2021/08/07 12:44:19;;;;;;;8.18;1.20;;;;;;;;;;5023505;28;20041;-67
2021/08/07 12:46:47;;;;;;;4.60;1.10;;;;;;;;;;5019679;28;20045;-67
2021/08/07 12:49:14;;;;;;;6.40;1.33;;;;;;;;;;5020402;28;20409;-67
2021/08/07 12:51:40;;;;;;;5.55;1.67;;;;;;;;;;5021861;28;20046;-67
2021/08/07 12:54:18;;;;;;;5.03;1.27;;;;;;;;;;5024382;28;20044;-67
2021/08/07 12:56:48;;;;;;;6.35;1.23;;;;;;;;;;5021521;28;20041;-67
2021/08/07 12:59:17;;;;;;;4.50;1.50;;;;;;;;;;5025805;28;20512;-67
2021/08/07 13:01:58;;;;;;;4.30;1.10;;;;;;;;;;5018354;28;20094;-67
2021/08/07 13:04:38;;;;;;;3.55;1.13;;;;;;;;;;5019061;28;20057;-67
2021/08/07 13:07:05;;;;;;;3.13;1.08;;;;;;;;;;5021033;28;20327;-67
2021/08/07 13:09:32;;;;;;;5.00;1.00;;;;;;;;;;5017886;28;20576;-67
2021/08/07 13:12:06;;;;;;;5.05;1.27;;;;;;;;;;5016651;28;20045;-67
2021/08/07 13:14:33;;;;;;;6.03;1.17;;;;;;;;;;5017819;28;20049;-67
2021/08/07 13:16:59;;;;;;;4.35;1.40;;;;;;;;;;5024488;28;20049;-67
2021/08/07 13:19:26;;;;;;;5.32;1.20;;;;;;;;;;5028116;28;20116;-67
2021/08/07 13:21:54;;;;;;;3.97;1.10;;;;;;;;;;5018749;28;20041;-67
2021/08/07 13:24:31;;;;;;;5.60;1.42;;;;;;;;;;5019627;28;20147;-67
2021/08/07 13:26:58;;;;;;;5.15;1.40;;;;;;;;;;5020111;28;20057;-67
2021/08/07 13:29:25;;;;;;;5.50;1.42;;;;;;;;;;5018555;28;20060;-67
2021/08/07 13:31:52;;;;;;;4.22;1.25;;;;;;;;;;5023143;28;20502;-67
2021/08/07 13:34:18;;;;;;;6.78;2.25;;;;;;;;;;5024235;28;20065;-67
2021/08/07 13:36:44;;;;;;;7.75;1.77;;;;;;;;;;5020686;28;20046;-67
2021/08/07 13:39:10;;;;;;;5.00;1.60;;;;;;;;;;5027767;28;20045;-67
2021/08/07 13:41:42;;;;;;;4.78;1.33;;;;;;;;;;5021077;28;20136;-68
2021/08/07 13:44:08;;;;;;;3.72;1.10;;;;;;;;;;5023737;28;20107;-67
2021/08/07 13:46:34;;;;;;;3.08;1.42;;;;;;;;;;5025202;28;20076;-67
2021/08/07 13:49:01;;;;;;;5.95;1.50;;;;;;;;;;5023805;28;20038;-67
2021/08/07 13:51:27;;;;;;;4.13;1.40;;;;;;;;;;5020737;28;20052;-67
2021/08/07 13:53:53;;;;;;;4.38;1.08;;;;;;;;;;5024266;28;20118;-67
2021/08/07 13:56:19;;;;;;;5.82;1.45;;;;;;;;;;5023041;28;20054;-67
2021/08/07 13:58:46;;;;;;;3.15;1.10;;;;;;;;;;5023303;28;20042;-67
2021/08/07 14:01:12;;;;;;;3.70;1.27;;;;;;;;;;5023999;28;20086;-67
2021/08/07 14:03:38;;;;;;;5.93;1.50;;;;;;;;;;5022463;28;20251;-67
2021/08/07 14:06:04;;;;;;;4.25;1.15;;;;;;;;;;5022035;28;20124;-66
2021/08/07 14:08:31;;;;;;;6.03;1.40;;;;;;;;;;5022249;28;20443;-67
2021/08/07 14:10:57;;;;;;;8.52;1.88;;;;;;;;;;5021828;28;20090;-67
2021/08/07 14:13:23;;;;;;;5.68;1.48;;;;;;;;;;5018573;28;20124;-67
2021/08/07 14:15:50;;;;;;;4.60;1.08;;;;;;;;;;5021676;28;20401;-67
2021/08/07 14:18:16;;;;;;;4.72;1.33;;;;;;;;;;5021652;28;20050;-67
2021/08/07 14:20:42;;;;;;;5.30;1.30;;;;;;;;;;5023856;28;20045;-67
2021/08/07 14:23:09;;;;;;;5.13;1.23;;;;;;;;;;5022670;28;20414;-67
2021/08/07 14:25:35;;;;;;;3.70;1.10;;;;;;;;;;5021178;28;20110;-67
2021/08/07 14:28:02;;;;;;;5.03;1.30;;;;;;;;;;5025926;28;20045;-67
2021/08/07 14:30:29;;;;;;;3.03;1.00;;;;;;;;;;5026293;28;20065;-67
2021/08/07 14:32:55;;;;;;;3.00;0.88;;;;;;;;;;5019162;28;20041;-67
2021/08/07 14:35:22;;;;;;;3.28;1.00;;;;;;;;;;5020675;28;20450;-67
2021/08/07 14:37:51;;;;;;;4.38;1.35;;;;;;;;;;5023667;28;20099;-67